Time;durP1;ratioP1;P1;durP2;ratioP2;P2;SDS_P1;SDS_P2;PMS_P1;PMS_P2;Temp;Humidity;BMP_temperature;BMP_pressure;BME280_temperature;BME280_humidity;BME280_pressure;Samples;Min_cycle;Max_cycle;Signal;HPM_P1;HPM_P2
2023/03/08 00:00:39;;;;;;;3.33;2.27;;;0.20;99.90;;;;;;5049044;28;20041;-81
2023/03/08 00:03:06;;;;;;;3.17;2.20;;;0.20;99.90;;;;;;5049714;28;20090;-81
2023/03/08 00:05:31;;;;;;;4.30;2.50;;;0.20;99.90;;;;;;5042040;28;20572;-81
2023/03/08 00:07:57;;;;;;;4.27;2.40;;;0.20;99.90;;;;;;5040399;28;20120;-81
2023/03/08 00:10:23;;;;;;;2.63;2.40;;;0.20;99.90;;;;;;5067024;28;20392;-81
2023/03/08 00:12:49;;;;;;;3.90;2.80;;;0.20;99.90;;;;;;5045788;28;20067;-81
2023/03/08 00:15:14;;;;;;;3.83;2.67;;;0.20;99.90;;;;;;5051551;28;20109;-81
2023/03/08 00:17:40;;;;;;;4.33;2.30;;;0.10;99.90;;;;;;5046157;28;20053;-81
2023/03/08 00:20:13;;;;;;;3.37;2.50;;;0.10;99.90;;;;;;5050223;28;20439;-81
2023/03/08 00:22:40;;;;;;;4.57;2.73;;;0.20;99.90;;;;;;5066332;28;20123;-81
2023/03/08 00:25:08;;;;;;;5.23;2.70;;;0.10;99.90;;;;;;5071599;28;20040;-81
2023/03/08 00:27:35;;;;;;;4.70;2.90;;;0.10;99.90;;;;;;5048853;28;20143;-81
2023/03/08 00:30:03;;;;;;;4.83;2.67;;;0.10;99.90;;;;;;5053008;28;20120;-81
2023/03/08 00:32:29;;;;;;;3.57;2.67;;;0.10;99.90;;;;;;5062557;28;20057;-81
2023/03/08 00:34:54;;;;;;;5.33;2.57;;;0.10;99.90;;;;;;5054508;28;20036;-81
2023/03/08 00:37:20;;;;;;;3.50;2.80;;;0.10;99.90;;;;;;5060413;28;20093;-81
2023/03/08 00:39:53;;;;;;;3.27;2.57;;;0.00;99.90;;;;;;5055323;28;20047;-81
2023/03/08 00:42:23;;;;;;;3.37;2.60;;;0.00;99.90;;;;;;5062986;28;20036;-80
2023/03/08 00:44:49;;;;;;;4.00;3.30;;;0.00;99.90;;;;;;5047758;28;20049;-81
2023/03/08 00:47:15;;;;;;;4.97;3.10;;;0.00;99.90;;;;;;5063764;28;20045;-81
2023/03/08 00:49:41;;;;;;;3.43;2.80;;;0.00;99.90;;;;;;5045039;28;20044;-81
2023/03/08 00:52:07;;;;;;;3.93;3.00;;;0.00;99.90;;;;;;5048305;28;20462;-81
2023/03/08 00:54:33;;;;;;;5.37;2.77;;;0.00;99.90;;;;;;5044325;28;20033;-81
2023/03/08 00:56:59;;;;;;;3.50;2.87;;;0.00;99.90;;;;;;5044582;28;20128;-81
2023/03/08 00:59:25;;;;;;;5.97;3.37;;;-0.10;99.90;;;;;;5036393;28;20494;-81
2023/03/08 01:01:50;;;;;;;3.63;2.60;;;-0.10;99.90;;;;;;5044372;28;20040;-81
2023/03/08 01:04:16;;;;;;;4.50;3.00;;;-0.10;99.90;;;;;;5028329;28;20059;-81
2023/03/08 01:06:42;;;;;;;3.43;2.80;;;-0.10;99.90;;;;;;5068520;28;20041;-81
2023/03/08 01:09:09;;;;;;;4.53;3.23;;;-0.10;99.90;;;;;;5066449;28;20036;-81
2023/03/08 01:11:36;;;;;;;4.20;3.20;;;-0.20;99.90;;;;;;5060554;28;20350;-81
2023/03/08 01:14:04;;;;;;;3.23;2.93;;;-0.20;99.90;;;;;;5059236;28;20086;-80
2023/03/08 01:16:32;;;;;;;4.37;3.00;;;-0.20;99.90;;;;;;5046844;28;20048;-81
2023/03/08 01:18:59;;;;;;;5.33;2.97;;;-0.20;99.90;;;;;;5065638;28;20072;-81
2023/03/08 01:21:26;;;;;;;4.23;3.00;;;-0.20;99.90;;;;;;5049973;28;20411;-81
2023/03/08 01:23:52;;;;;;;5.03;3.10;;;-0.20;99.90;;;;;;5063944;28;20025;-81
2023/03/08 01:26:21;;;;;;;6.13;3.43;;;-0.20;99.90;;;;;;5049211;28;20067;-81
2023/03/08 01:29:44;;;;;;;7.05;3.67;;;-0.30;99.90;;;;;;5049145;28;20037;-81
2023/03/08 01:32:30;;;;;;;4.70;2.83;;;-0.30;99.90;;;;;;5017178;28;20045;-81
2023/03/08 01:35:03;;;;;;;7.17;3.40;;;-0.30;99.90;;;;;;5069882;28;20411;-81
2023/03/08 01:37:55;;;;;;;6.13;3.67;;;-0.30;99.90;;;;;;5060859;28;20044;-81
2023/03/08 01:40:21;;;;;;;5.80;3.33;;;-0.30;99.90;;;;;;5023437;28;20765;-81
2023/03/08 01:42:48;;;;;;;4.37;3.10;;;-0.30;99.90;;;;;;5045134;28;20564;-81
2023/03/08 01:46:05;;;;;;;4.00;3.40;;;-0.30;99.90;;;;;;5041511;28;20052;-81
2023/03/08 01:48:46;;;;;;;4.70;3.30;;;-0.30;99.90;;;;;;5025823;28;20619;-81
2023/03/08 01:51:18;;;;;;;6.03;3.37;;;-0.30;99.90;;;;;;5063645;28;20089;-81
2023/03/08 01:53:44;;;;;;;6.65;3.90;;;-0.40;99.90;;;;;;5064367;28;20044;-81
2023/03/08 01:56:12;;;;;;;4.97;3.40;;;-0.30;99.90;;;;;;5038452;28;20047;-81
2023/03/08 01:58:43;;;;;;;5.30;3.30;;;-0.30;99.90;;;;;;5039700;28;20029;-81
2023/03/08 02:01:09;;;;;;;5.25;3.50;;;-0.30;99.90;;;;;;5062520;28;20055;-81
2023/03/08 02:03:35;;;;;;;4.83;3.17;;;-0.40;99.90;;;;;;5065932;28;20476;-81
2023/03/08 02:06:02;;;;;;;5.47;3.20;;;-0.40;99.90;;;;;;5062085;28;20041;-81
2023/03/08 02:08:29;;;;;;;5.00;3.70;;;-0.40;99.90;;;;;;5060737;28;20062;-81
2023/03/08 02:10:56;;;;;;;5.10;3.60;;;-0.40;99.90;;;;;;5047742;28;20044;-81
2023/03/08 02:13:22;;;;;;;5.10;4.00;;;-0.40;99.90;;;;;;5043369;28;20408;-81
2023/03/08 02:15:50;;;;;;;5.80;4.10;;;-0.40;99.90;;;;;;5066442;28;20036;-81
2023/03/08 02:18:15;;;;;;;7.50;4.50;;;-0.40;99.90;;;;;;5056942;28;20033;-81
2023/03/08 02:20:41;;;;;;;5.70;4.57;;;-0.40;99.90;;;;;;5066200;28;20044;-81
2023/03/08 02:23:15;;;;;;;6.23;4.67;;;-0.40;99.90;;;;;;5042621;28;20036;-81
2023/03/08 02:25:56;;;;;;;6.20;4.90;;;-0.40;99.90;;;;;;5068948;28;20036;-81
2023/03/08 02:28:24;;;;;;;8.40;5.60;;;-0.40;99.90;;;;;;5063042;28;20036;-81
2023/03/08 02:30:50;;;;;;;7.63;5.70;;;-0.40;99.90;;;;;;5063247;28;20424;-81
2023/03/08 02:33:17;;;;;;;8.23;6.00;;;-0.40;99.90;;;;;;5033617;28;20047;-81
2023/03/08 02:35:44;;;;;;;8.13;6.27;;;-0.40;99.90;;;;;;5058423;28;20068;-81
2023/03/08 02:38:13;;;;;;;8.83;7.17;;;-0.40;99.90;;;;;;5056854;28;20041;-81
2023/03/08 02:40:39;;;;;;;12.90;6.73;;;-0.40;99.90;;;;;;5061675;28;20032;-81
2023/03/08 02:43:05;;;;;;;10.87;7.10;;;-0.40;99.90;;;;;;5045148;28;20082;-81
2023/03/08 02:45:32;;;;;;;8.30;6.60;;;-0.40;99.90;;;;;;5048898;28;20056;-81
2023/03/08 02:47:59;;;;;;;10.33;7.00;;;-0.40;99.90;;;;;;5047986;28;20468;-81
2023/03/08 02:50:25;;;;;;;10.60;7.17;;;-0.40;99.90;;;;;;5040973;28;20037;-81
2023/03/08 02:52:51;;;;;;;9.07;7.60;;;-0.40;99.90;;;;;;5047774;28;20044;-81
2023/03/08 02:55:16;;;;;;;10.00;7.90;;;-0.40;99.90;;;;;;5039954;28;20401;-81
2023/03/08 02:57:42;;;;;;;10.63;7.40;;;-0.40;99.90;;;;;;5044279;28;20040;-81
2023/03/08 03:00:08;;;;;;;11.00;8.23;;;-0.40;99.90;;;;;;5043428;28;20510;-81
2023/03/08 03:02:34;;;;;;;11.73;8.17;;;-0.40;99.90;;;;;;5039411;28;20038;-81
2023/03/08 03:05:06;;;;;;;11.40;8.40;;;-0.40;99.90;;;;;;5065085;28;20373;-81
2023/03/08 03:07:37;;;;;;;10.55;7.53;;;-0.40;99.90;;;;;;5040671;28;20497;-81
2023/03/08 03:10:04;;;;;;;9.37;7.90;;;-0.40;99.90;;;;;;5062301;28;20131;-81
2023/03/08 03:12:30;;;;;;;12.67;8.77;;;-0.40;99.90;;;;;;5067415;28;20094;-81
2023/03/08 03:14:56;;;;;;;11.13;7.90;;;-0.40;99.90;;;;;;5060092;28;20491;-81
2023/03/08 03:17:22;;;;;;;12.33;9.17;;;-0.50;99.90;;;;;;5046848;28;20043;-81
2023/03/08 03:19:48;;;;;;;11.17;8.70;;;-0.40;99.90;;;;;;5043440;28;20032;-81
2023/03/08 03:22:13;;;;;;;9.57;7.97;;;-0.50;99.90;;;;;;5039720;28;20048;-81
2023/03/08 03:24:39;;;;;;;11.53;8.73;;;-0.50;99.90;;;;;;5047491;28;20047;-80
2023/03/08 03:27:05;;;;;;;9.50;7.97;;;-0.50;99.90;;;;;;5026351;28;20123;-80
2023/03/08 03:29:31;;;;;;;10.90;8.63;;;-0.50;99.90;;;;;;5062992;28;20036;-80
2023/03/08 03:31:56;;;;;;;9.80;8.77;;;-0.50;99.90;;;;;;5043066;28;20044;-80
2023/03/08 03:34:22;;;;;;;9.97;8.97;;;-0.50;99.90;;;;;;5045262;28;20045;-79
2023/03/08 03:36:47;;;;;;;14.50;9.73;;;-0.50;99.90;;;;;;5044012;28;20116;-80
2023/03/08 03:39:13;;;;;;;11.03;9.20;;;-0.50;99.90;;;;;;5032690;28;20039;-80
2023/03/08 03:41:39;;;;;;;13.77;10.07;;;-0.50;99.90;;;;;;5060590;28;20037;-80
2023/03/08 03:44:05;;;;;;;12.97;9.77;;;-0.50;99.90;;;;;;5066087;28;20052;-80
2023/03/08 03:46:30;;;;;;;11.43;9.77;;;-0.60;99.90;;;;;;5062083;28;20483;-80
2023/03/08 03:48:56;;;;;;;13.73;9.67;;;-0.60;99.90;;;;;;5044762;28;20072;-80
2023/03/08 03:51:22;;;;;;;13.93;9.93;;;-0.60;99.90;;;;;;5031986;28;20794;-80
2023/03/08 03:53:48;;;;;;;12.83;9.77;;;-0.60;99.90;;;;;;5046892;28;20380;-80
2023/03/08 03:56:17;;;;;;;13.47;10.17;;;-0.60;99.90;;;;;;5044788;28;20068;-80
2023/03/08 03:58:43;;;;;;;15.40;10.00;;;-0.60;99.90;;;;;;5058717;28;20037;-80
2023/03/08 04:01:14;;;;;;;11.70;9.33;;;-0.60;99.90;;;;;;5046311;28;20040;-80
2023/03/08 04:03:40;;;;;;;10.88;9.68;;;-0.60;99.90;;;;;;5063223;28;20075;-80
2023/03/08 04:06:15;;;;;;;13.87;9.57;;;-0.60;99.90;;;;;;5044250;28;20036;-80
2023/03/08 04:08:42;;;;;;;12.60;9.83;;;-0.60;99.90;;;;;;5060167;28;20426;-80
2023/03/08 04:11:17;;;;;;;12.43;10.40;;;-0.60;99.90;;;;;;5045234;28;20460;-80
2023/03/08 04:13:43;;;;;;;13.80;9.57;;;-0.60;99.90;;;;;;5065608;28;20404;-80
2023/03/08 04:16:09;;;;;;;10.60;9.50;;;-0.60;99.90;;;;;;5062792;28;20115;-81
2023/03/08 04:18:35;;;;;;;10.90;9.37;;;-0.60;99.90;;;;;;5046787;28;20119;-80
2023/03/08 04:21:01;;;;;;;11.23;9.43;;;-0.70;99.90;;;;;;5040861;28;20696;-81
2023/03/08 04:23:27;;;;;;;10.80;9.50;;;-0.70;99.90;;;;;;5016102;28;20167;-80
2023/03/08 04:25:52;;;;;;;11.03;9.73;;;-0.70;99.90;;;;;;5008787;28;20063;-80
2023/03/08 04:28:18;;;;;;;13.17;10.13;;;-0.70;99.90;;;;;;5044221;28;20072;-80
2023/03/08 04:30:43;;;;;;;12.67;9.80;;;-0.70;99.90;;;;;;5044625;28;20041;-81
2023/03/08 04:33:09;;;;;;;14.40;9.70;;;-0.70;99.90;;;;;;5062863;28;20040;-80
2023/03/08 04:35:35;;;;;;;11.87;10.17;;;-0.70;99.90;;;;;;5058023;28;20090;-80
2023/03/08 04:38:00;;;;;;;12.80;9.80;;;-0.70;99.90;;;;;;5045097;28;20044;-80
2023/03/08 04:40:26;;;;;;;13.00;10.37;;;-0.80;99.90;;;;;;5048242;28;20442;-80
2023/03/08 04:42:52;;;;;;;12.37;10.77;;;-0.80;99.90;;;;;;5034359;28;20051;-80
2023/03/08 04:45:17;;;;;;;13.27;11.33;;;-0.80;99.90;;;;;;5031021;28;20067;-80
2023/03/08 04:47:43;;;;;;;13.40;11.40;;;-0.80;99.90;;;;;;5055394;28;20771;-80
2023/03/08 04:50:10;;;;;;;15.87;11.37;;;-0.80;99.90;;;;;;5043588;28;20044;-80
2023/03/08 04:52:35;;;;;;;15.50;11.73;;;-0.80;99.90;;;;;;5030352;28;20468;-80
2023/03/08 04:55:01;;;;;;;12.90;10.97;;;-0.80;99.90;;;;;;5028540;28;20090;-81
2023/03/08 04:57:27;;;;;;;12.90;11.37;;;-0.80;99.90;;;;;;5032227;28;20515;-80
2023/03/08 04:59:52;;;;;;;14.57;11.93;;;-0.80;99.90;;;;;;5047929;28;20059;-81
2023/03/08 05:02:18;;;;;;;16.27;11.37;;;-0.80;99.90;;;;;;5043980;28;20043;-81
2023/03/08 05:04:44;;;;;;;15.00;11.97;;;-0.80;99.90;;;;;;5067757;28;20272;-80
2023/03/08 05:07:09;;;;;;;14.03;11.73;;;-0.80;99.90;;;;;;5062182;28;20091;-80
2023/03/08 05:09:35;;;;;;;15.23;12.30;;;-0.90;99.90;;;;;;5034334;28;20044;-80
2023/03/08 05:12:01;;;;;;;13.87;12.00;;;-0.80;99.90;;;;;;5061963;28;20518;-80
2023/03/08 05:14:26;;;;;;;15.30;13.17;;;-0.90;99.90;;;;;;5057887;28;20436;-80
2023/03/08 05:16:55;;;;;;;15.50;12.73;;;-0.90;99.90;;;;;;5008350;28;20094;-80
2023/03/08 05:19:20;;;;;;;14.37;12.67;;;-0.90;99.90;;;;;;5068450;28;20600;-81
2023/03/08 05:21:46;;;;;;;14.33;12.40;;;-0.90;99.90;;;;;;5032561;28;20077;-81
2023/03/08 05:24:12;;;;;;;15.40;12.70;;;-0.90;99.90;;;;;;5058818;28;20033;-81
2023/03/08 05:26:38;;;;;;;15.43;12.80;;;-0.90;99.90;;;;;;5063818;28;20488;-81
2023/03/08 05:29:05;;;;;;;15.30;12.60;;;-0.90;99.90;;;;;;5062147;28;20079;-81
2023/03/08 05:31:31;;;;;;;17.20;13.50;;;-1.00;99.90;;;;;;5046940;28;20691;-81
2023/03/08 05:33:57;;;;;;;15.90;13.10;;;-1.00;99.90;;;;;;5063685;28;20075;-81
2023/03/08 05:36:23;;;;;;;16.57;13.20;;;-0.90;99.90;;;;;;5041666;28;20061;-81
2023/03/08 05:38:53;;;;;;;14.97;12.43;;;-1.00;99.90;;;;;;5048774;28;20499;-81
2023/03/08 05:41:19;;;;;;;17.97;13.03;;;-1.00;99.90;;;;;;5048737;28;20495;-81
2023/03/08 05:43:45;;;;;;;14.17;12.63;;;-1.10;99.90;;;;;;5041272;28;20037;-81
2023/03/08 05:46:14;;;;;;;16.53;12.83;;;-1.10;99.90;;;;;;5045467;28;20037;-81
2023/03/08 05:48:40;;;;;;;15.07;13.23;;;-1.10;99.90;;;;;;5078887;28;20055;-81
2023/03/08 05:51:07;;;;;;;14.37;12.67;;;-1.10;99.90;;;;;;5053484;28;20037;-81
2023/03/08 05:53:33;;;;;;;16.83;12.33;;;-1.10;99.90;;;;;;5031376;28;20037;-81
2023/03/08 05:56:08;;;;;;;16.60;12.87;;;-1.10;99.90;;;;;;5063657;28;20039;-81
2023/03/08 05:58:35;;;;;;;15.70;14.03;;;-1.10;99.90;;;;;;5062317;28;20068;-81
2023/03/08 06:01:08;;;;;;;20.13;13.67;;;-1.10;99.90;;;;;;5057089;28;20040;-82
2023/03/08 06:03:34;;;;;;;17.47;13.77;;;-1.10;99.90;;;;;;5046752;28;20062;-82
2023/03/08 06:05:59;;;;;;;15.27;13.57;;;-1.10;99.90;;;;;;5062847;28;20048;-81
2023/03/08 06:08:25;;;;;;;15.40;12.73;;;-1.10;99.90;;;;;;5045712;28;20054;-81
2023/03/08 06:10:50;;;;;;;17.43;13.70;;;-1.10;99.90;;;;;;5061186;28;20049;-82
2023/03/08 06:13:16;;;;;;;15.80;13.23;;;-1.10;99.90;;;;;;5049644;28;20127;-82
2023/03/08 06:15:42;;;;;;;14.50;13.00;;;-1.10;99.90;;;;;;5039840;28;20033;-82
2023/03/08 06:18:08;;;;;;;17.73;13.23;;;-1.10;99.90;;;;;;5045092;28;20484;-82
2023/03/08 06:20:33;;;;;;;14.93;13.30;;;-1.10;99.90;;;;;;5033120;28;20039;-81
2023/03/08 06:22:59;;;;;;;17.10;13.80;;;-1.20;99.90;;;;;;5046691;28;20111;-82
2023/03/08 06:25:25;;;;;;;16.83;13.07;;;-1.10;99.90;;;;;;5046447;28;20044;-82
2023/03/08 06:27:50;;;;;;;14.67;13.17;;;-1.10;99.90;;;;;;5040564;28;20507;-81
2023/03/08 06:30:16;;;;;;;16.23;13.30;;;-1.10;99.90;;;;;;5029770;28;20120;-81
2023/03/08 06:32:42;;;;;;;17.33;14.37;;;-1.10;99.90;;;;;;5064327;28;20043;-81
2023/03/08 06:35:09;;;;;;;17.43;14.43;;;-1.10;99.90;;;;;;5063995;28;20357;-81
2023/03/08 06:37:35;;;;;;;16.50;14.63;;;-1.10;99.90;;;;;;5067642;28;20028;-81
2023/03/08 06:40:02;;;;;;;17.17;14.10;;;-1.00;99.90;;;;;;5067489;28;20037;-81
2023/03/08 06:42:28;;;;;;;19.20;14.80;;;-1.00;99.90;;;;;;5056544;28;20036;-81
2023/03/08 06:44:54;;;;;;;16.10;14.20;;;-1.00;99.90;;;;;;5060171;28;20461;-81
2023/03/08 06:47:19;;;;;;;19.53;14.37;;;-1.00;99.90;;;;;;5029693;28;20764;-82
2023/03/08 06:49:45;;;;;;;17.53;14.47;;;-1.00;99.90;;;;;;5048079;28;20040;-82
2023/03/08 06:52:11;;;;;;;18.60;14.43;;;-0.90;99.90;;;;;;5059073;28;20032;-82
2023/03/08 06:54:36;;;;;;;15.80;13.83;;;-0.90;99.90;;;;;;5046020;28;20037;-82
2023/03/08 06:57:02;;;;;;;15.93;14.33;;;-0.90;99.90;;;;;;5040564;28;20048;-82
2023/03/08 06:59:28;;;;;;;18.03;14.73;;;-0.80;99.90;;;;;;5025445;28;20033;-82
2023/03/08 07:01:53;;;;;;;17.07;13.80;;;-0.80;99.90;;;;;;5063583;28;20037;-81
2023/03/08 07:04:19;;;;;;;15.70;14.00;;;-0.70;99.90;;;;;;5039918;28;20044;-81
2023/03/08 07:06:45;;;;;;;17.80;13.73;;;-0.60;99.90;;;;;;5044519;28;20072;-82
2023/03/08 07:09:12;;;;;;;15.83;13.20;;;-0.50;99.90;;;;;;5061330;28;20040;-82
2023/03/08 07:11:38;;;;;;;16.33;13.47;;;-0.50;99.90;;;;;;5066041;28;20132;-82
2023/03/08 07:14:04;;;;;;;15.97;12.17;;;-0.40;99.90;;;;;;5045248;28;20128;-81
2023/03/08 07:16:29;;;;;;;16.23;12.77;;;-0.40;99.90;;;;;;5065629;28;20072;-82
2023/03/08 07:18:55;;;;;;;14.37;12.50;;;-0.40;99.90;;;;;;5052205;28;20076;-82
2023/03/08 07:21:22;;;;;;;15.57;12.50;;;-0.30;99.90;;;;;;5043547;28;20074;-81
2023/03/08 07:23:51;;;;;;;15.70;13.43;;;-0.30;99.90;;;;;;5061570;28;20098;-81
2023/03/08 07:26:17;;;;;;;15.47;13.07;;;-0.20;99.90;;;;;;5048338;28;20124;-81
2023/03/08 07:28:42;;;;;;;13.67;12.27;;;-0.20;99.90;;;;;;5061169;28;20117;-81
2023/03/08 07:31:10;;;;;;;14.80;12.47;;;-0.10;99.90;;;;;;5013951;28;20484;-81
2023/03/08 07:33:36;;;;;;;13.77;12.07;;;-0.10;99.90;;;;;;5064994;28;20048;-81
2023/03/08 07:36:02;;;;;;;13.37;11.97;;;-0.10;99.90;;;;;;5064268;28;20044;-81
2023/03/08 07:38:28;;;;;;;16.30;12.90;;;-0.10;99.90;;;;;;5067842;28;20150;-81
2023/03/08 07:40:55;;;;;;;14.03;12.53;;;0.00;99.90;;;;;;5061229;28;20167;-81
2023/03/08 07:43:21;;;;;;;14.17;12.07;;;0.00;99.90;;;;;;5064315;28;20032;-81
2023/03/08 07:45:46;;;;;;;13.90;12.27;;;0.00;99.90;;;;;;5048061;28;20079;-82
2023/03/08 07:48:12;;;;;;;13.07;11.67;;;0.00;99.90;;;;;;5035534;28;20044;-82
2023/03/08 07:50:38;;;;;;;15.60;11.87;;;0.10;99.90;;;;;;5028942;28;20124;-82
2023/03/08 07:53:03;;;;;;;15.27;12.70;;;0.10;99.90;;;;;;5066388;28;20036;-81
2023/03/08 07:55:29;;;;;;;12.77;11.17;;;0.10;99.90;;;;;;5045966;28;20649;-82
2023/03/08 07:57:55;;;;;;;14.37;10.67;;;0.10;99.90;;;;;;5049214;28;20033;-82
2023/03/08 08:00:21;;;;;;;13.20;11.63;;;0.20;99.90;;;;;;5046415;28;20041;-81
2023/03/08 08:02:47;;;;;;;14.17;11.17;;;0.20;99.90;;;;;;5044125;28;20029;-81
2023/03/08 08:05:13;;;;;;;13.60;11.70;;;0.20;99.90;;;;;;5042474;28;20108;-81
2023/03/08 08:07:39;;;;;;;13.03;11.67;;;0.30;99.90;;;;;;5043762;28;20143;-81
2023/03/08 08:10:07;;;;;;;14.63;11.60;;;0.30;99.90;;;;;;5059599;28;20037;-82
2023/03/08 08:12:33;;;;;;;13.33;12.03;;;0.40;99.90;;;;;;5058657;28;20054;-82
2023/03/08 08:14:58;;;;;;;15.47;11.60;;;0.50;99.90;;;;;;5060073;28;20072;-82
2023/03/08 08:17:24;;;;;;;13.60;11.23;;;0.50;99.90;;;;;;5057657;28;20080;-82
2023/03/08 08:19:50;;;;;;;13.37;11.77;;;0.50;99.90;;;;;;5056872;28;20044;-82
2023/03/08 08:22:16;;;;;;;14.03;12.23;;;0.60;99.90;;;;;;5061924;28;20033;-82
2023/03/08 08:24:41;;;;;;;14.43;12.37;;;0.60;99.90;;;;;;5059706;28;20040;-82
2023/03/08 08:27:07;;;;;;;14.37;11.90;;;0.70;99.90;;;;;;5028050;28;20041;-82
2023/03/08 08:29:33;;;;;;;13.10;11.70;;;0.80;99.90;;;;;;5058635;28;20047;-82
2023/03/08 08:31:59;;;;;;;15.00;12.73;;;0.80;99.90;;;;;;5060140;28;20049;-81
2023/03/08 08:34:24;;;;;;;13.93;12.23;;;0.80;99.90;;;;;;5060173;28;20055;-81
2023/03/08 08:36:50;;;;;;;15.87;13.40;;;0.90;99.90;;;;;;5025963;28;20466;-82
2023/03/08 08:39:16;;;;;;;13.47;12.07;;;1.00;99.90;;;;;;5028766;28;20422;-81
2023/03/08 08:41:41;;;;;;;14.40;12.90;;;1.00;99.90;;;;;;5029174;28;20056;-81
2023/03/08 08:44:07;;;;;;;18.90;13.57;;;1.10;99.90;;;;;;5026285;28;20048;-82
2023/03/08 08:46:33;;;;;;;14.67;12.30;;;1.10;99.90;;;;;;5026076;28;20036;-81
2023/03/08 08:49:00;;;;;;;15.03;12.37;;;1.20;99.90;;;;;;5055498;28;20044;-82
2023/03/08 08:51:27;;;;;;;14.20;11.90;;;1.20;99.90;;;;;;5056195;28;20506;-82
2023/03/08 08:53:56;;;;;;;13.70;12.30;;;1.30;99.90;;;;;;5039958;28;20434;-82
2023/03/08 08:56:24;;;;;;;15.87;13.60;;;1.30;99.90;;;;;;5041253;28;20122;-82
2023/03/08 08:58:50;;;;;;;14.67;12.43;;;1.30;99.90;;;;;;5039608;28;20117;-82
2023/03/08 09:01:17;;;;;;;15.37;12.70;;;1.40;99.90;;;;;;5022451;28;20106;-82
2023/03/08 09:03:44;;;;;;;14.93;13.10;;;1.40;99.90;;;;;;5039238;28;20082;-82
2023/03/08 09:06:11;;;;;;;19.00;14.17;;;1.40;99.90;;;;;;5039955;28;20072;-81
2023/03/08 09:08:36;;;;;;;16.90;13.23;;;1.50;99.90;;;;;;5056976;28;20037;-82
2023/03/08 09:11:07;;;;;;;16.47;12.97;;;1.50;99.90;;;;;;5037380;28;20093;-82
2023/03/08 09:13:33;;;;;;;15.20;11.83;;;1.60;99.90;;;;;;5054082;28;20511;-81
2023/03/08 09:15:59;;;;;;;12.77;11.40;;;1.60;99.90;;;;;;5039046;28;20120;-83
2023/03/08 09:18:25;;;;;;;15.37;11.60;;;1.60;99.90;;;;;;5037630;28;20059;-81
2023/03/08 09:20:51;;;;;;;15.47;11.60;;;1.70;99.90;;;;;;5053911;28;20037;-81
2023/03/08 09:23:17;;;;;;;13.93;12.43;;;1.70;99.90;;;;;;5056106;28;20045;-81
2023/03/08 09:25:43;;;;;;;13.93;12.47;;;1.80;99.90;;;;;;5060628;28;20041;-82
2023/03/08 09:28:10;;;;;;;14.70;12.47;;;1.90;99.90;;;;;;5044797;28;20428;-81
2023/03/08 09:30:36;;;;;;;13.87;11.87;;;2.00;99.90;;;;;;5060333;28;20047;-81
2023/03/08 09:33:02;;;;;;;15.27;12.43;;;2.00;99.90;;;;;;5029250;28;20048;-81
2023/03/08 09:35:29;;;;;;;16.37;12.90;;;2.10;99.90;;;;;;5028214;28;20036;-82
2023/03/08 09:37:55;;;;;;;13.83;12.50;;;2.10;99.90;;;;;;5060143;28;20052;-81
2023/03/08 09:40:24;;;;;;;18.03;14.97;;;2.20;99.90;;;;;;5043846;28;20036;-81
2023/03/08 09:42:51;;;;;;;16.30;13.80;;;2.20;99.90;;;;;;5042415;28;20037;-82
2023/03/08 09:45:24;;;;;;;19.30;14.60;;;2.20;99.90;;;;;;5041543;28;20473;-81
2023/03/08 09:47:58;;;;;;;18.60;15.70;;;2.30;99.90;;;;;;5061522;28;20405;-82
2023/03/08 09:50:29;;;;;;;17.50;14.10;;;2.30;99.90;;;;;;5038705;28;20048;-82
2023/03/08 09:53:02;;;;;;;18.37;15.00;;;2.20;99.90;;;;;;5042298;28;20037;-81
2023/03/08 09:55:34;;;;;;;19.17;15.37;;;2.30;99.90;;;;;;5058225;28;20039;-81
2023/03/08 09:58:16;;;;;;;20.53;17.17;;;2.30;99.90;;;;;;5061473;28;20044;-81
2023/03/08 10:00:43;;;;;;;27.50;24.50;;;2.30;99.90;;;;;;5055764;28;20476;-81
2023/03/08 10:03:37;;;;;;;31.00;23.93;;;2.40;99.90;;;;;;5036655;28;20055;-81
2023/03/08 10:06:19;;;;;;;31.07;21.87;;;2.40;99.90;;;;;;5054693;28;20045;-81
2023/03/08 10:09:20;;;;;;;66.60;52.57;;;2.40;99.90;;;;;;5033613;28;20044;-80
2023/03/08 10:12:09;;;;;;;46.27;32.17;;;2.40;99.90;;;;;;5035370;28;20288;-81
2023/03/08 10:14:39;;;;;;;55.17;35.17;;;2.40;99.90;;;;;;5046085;28;20044;-81
2023/03/08 10:17:21;;;;;;;75.33;44.47;;;2.40;99.90;;;;;;5040776;28;20106;-81
2023/03/08 10:20:13;;;;;;;68.90;43.75;;;2.40;99.90;;;;;;5039416;28;20033;-81
2023/03/08 10:22:41;;;;;;;36.55;24.38;;;2.50;99.90;;;;;;5041934;28;20047;-82
2023/03/08 10:25:30;;;;;;;31.30;21.17;;;2.50;99.90;;;;;;5032071;28;20068;-82
2023/03/08 10:27:57;;;;;;;33.47;21.70;;;2.40;99.90;;;;;;5038786;28;20044;-82
2023/03/08 10:30:36;;;;;;;28.73;20.23;;;2.30;99.90;;;;;;5055498;28;20040;-81
2023/03/08 10:33:11;;;;;;;30.97;21.80;;;2.30;99.90;;;;;;5038492;28;20138;-82
2023/03/08 10:35:55;;;;;;;34.90;21.73;;;2.30;99.90;;;;;;5040978;28;20463;-82
2023/03/08 10:38:22;;;;;;;35.67;21.70;;;2.40;99.90;;;;;;5043669;28;20042;-81
2023/03/08 10:41:02;;;;;;;37.27;24.83;;;2.30;99.90;;;;;;5061710;28;20041;-81
2023/03/08 10:43:31;;;;;;;33.80;22.00;;;2.30;99.90;;;;;;5052318;28;20101;-81
2023/03/08 10:46:00;;;;;;;30.60;20.07;;;2.40;99.90;;;;;;5054847;28;20053;-82
2023/03/08 10:48:26;;;;;;;29.87;18.87;;;2.40;99.90;;;;;;5039782;28;20040;-82
2023/03/08 10:51:04;;;;;;;29.83;20.67;;;2.40;99.90;;;;;;5027290;28;20541;-81
2023/03/08 10:53:31;;;;;;;29.43;18.63;;;2.40;99.90;;;;;;5041661;28;20044;-81
2023/03/08 10:56:02;;;;;;;28.93;18.80;;;2.40;99.90;;;;;;5040366;28;20373;-82
2023/03/08 10:58:38;;;;;;;26.77;17.30;;;2.40;99.90;;;;;;5039573;28;20127;-82
2023/03/08 11:01:26;;;;;;;26.97;17.80;;;2.40;99.90;;;;;;5041244;28;20052;-81
2023/03/08 11:04:04;;;;;;;29.17;17.63;;;2.40;99.90;;;;;;5019867;28;20392;-81
2023/03/08 11:06:31;;;;;;;30.60;19.57;;;2.50;99.90;;;;;;5038743;28;20151;-81
2023/03/08 11:08:59;;;;;;;28.50;18.13;;;2.60;99.90;;;;;;5041091;28;20048;-81
2023/03/08 11:11:26;;;;;;;24.77;18.30;;;2.80;99.90;;;;;;5044655;28;20127;-81
2023/03/08 11:13:53;;;;;;;23.40;15.97;;;3.00;99.90;;;;;;5044325;28;20037;-81
2023/03/08 11:16:28;;;;;;;22.07;15.60;;;3.10;99.90;;;;;;5044558;28;20136;-82
2023/03/08 11:19:10;;;;;;;21.47;14.70;;;3.20;99.90;;;;;;5043779;28;20573;-81
2023/03/08 11:22:04;;;;;;;25.98;16.15;;;3.30;99.90;;;;;;5055645;28;20074;-81
2023/03/08 11:25:03;;;;;;;22.20;15.63;;;3.30;99.90;;;;;;5032784;28;20048;-81
2023/03/08 11:27:43;;;;;;;23.00;14.70;;;3.30;99.90;;;;;;5037997;28;20117;-81
2023/03/08 11:30:34;;;;;;;23.17;14.90;;;3.20;99.90;;;;;;5051423;28;20094;-82
2023/03/08 11:33:28;;;;;;;22.13;14.60;;;3.20;99.90;;;;;;5038637;28;20419;-82
2023/03/08 11:36:32;;;;;;;20.03;14.30;;;3.20;99.90;;;;;;5038985;28;20201;-81
2023/03/08 11:39:13;;;;;;;23.40;15.20;;;3.20;99.90;;;;;;5052477;28;20053;-81
2023/03/08 11:41:45;;;;;;;22.60;14.48;;;3.20;99.90;;;;;;5056281;28;20461;-81
2023/03/08 11:44:17;;;;;;;21.05;13.18;;;3.20;99.90;;;;;;5054495;28;20047;-81
2023/03/08 11:47:20;;;;;;;19.45;13.18;;;3.20;99.90;;;;;;5039698;28;20072;-81
2023/03/08 11:50:05;;;;;;;20.83;13.73;;;3.20;99.90;;;;;;5013108;28;20075;-81
2023/03/08 11:52:36;;;;;;;20.70;13.47;;;3.20;99.90;;;;;;5047774;28;20044;-81
2023/03/08 11:55:21;;;;;;;20.00;13.57;;;3.30;99.90;;;;;;5061744;28;20071;-81
2023/03/08 11:57:54;;;;;;;19.60;12.60;;;3.30;99.90;;;;;;5047986;28;20029;-81
2023/03/08 12:00:40;;;;;;;21.17;14.27;;;3.30;99.90;;;;;;5038281;28;20041;-81
2023/03/08 12:03:13;;;;;;;22.00;13.93;;;3.30;99.90;;;;;;5060722;28;20052;-81
2023/03/08 12:05:44;;;;;;;21.60;13.40;;;3.40;99.90;;;;;;5051521;28;20079;-81
2023/03/08 12:08:10;;;;;;;19.30;13.43;;;3.40;99.90;;;;;;5058679;28;20044;-81
2023/03/08 12:10:41;;;;;;;20.10;13.83;;;3.50;99.90;;;;;;5042004;28;20394;-82
2023/03/08 12:13:40;;;;;;;19.20;11.68;;;3.50;99.90;;;;;;5058787;28;20483;-81
2023/03/08 12:16:16;;;;;;;20.67;12.53;;;3.50;99.90;;;;;;5051520;28;20558;-81
2023/03/08 12:18:47;;;;;;;18.10;12.13;;;3.50;99.90;;;;;;5065195;28;20032;-81
2023/03/08 12:21:49;;;;;;;17.45;11.73;;;3.50;99.90;;;;;;5043969;28;20044;-81
2023/03/08 12:24:15;;;;;;;19.75;13.02;;;3.50;99.90;;;;;;5059010;28;20120;-80
2023/03/08 12:27:09;;;;;;;20.07;12.90;;;3.50;99.90;;;;;;5061172;28;20124;-81
2023/03/08 12:29:40;;;;;;;18.30;12.70;;;3.60;99.90;;;;;;5050766;28;20553;-81
2023/03/08 12:32:08;;;;;;;18.53;12.83;;;3.60;99.90;;;;;;5058140;28;20041;-81
2023/03/08 12:34:44;;;;;;;21.30;14.00;;;3.70;99.90;;;;;;5059161;28;20051;-81
2023/03/08 12:37:21;;;;;;;19.43;12.47;;;3.80;99.90;;;;;;5060451;28;20049;-81
2023/03/08 12:39:55;;;;;;;21.40;13.90;;;3.90;99.90;;;;;;5039265;28;20068;-80
2023/03/08 12:42:37;;;;;;;20.17;12.97;;;3.90;99.90;;;;;;5048073;28;20042;-80
2023/03/08 12:45:26;;;;;;;;;;;4.00;99.90;;;;;;5047147;28;20117;-80
2023/03/08 12:47:59;;;;;;;17.47;12.57;;;4.10;99.90;;;;;;5042953;28;19916;-80
2023/03/08 12:50:25;;;;;;;18.87;12.30;;;4.20;99.90;;;;;;5064690;28;20074;-80